TimeEST,TemperatureF,Dew PointF,Humidity,Sea Level PressureIn,VisibilityMPH,Wind Direction,Wind SpeedMPH,Gust SpeedMPH,PrecipitationIn,Events,Conditions,WindDirDegrees,DateUTC
12:55 AM,29.5,19.8,67,30.20,10.0,NNW,4.6,-,N/A,,Clear,330,2012-12-12 05:55:00
1:55 AM,30.0,19.8,66,30.22,10.0,Calm,Calm,-,N/A,,Clear,0,2012-12-12 06:55:00
2:55 AM,27.5,19.0,71,30.23,10.0,NNW,4.6,-,N/A,,Clear,330,2012-12-12 07:55:00
3:55 AM,27.3,19.8,73,30.25,10.0,Calm,Calm,-,N/A,,Clear,0,2012-12-12 08:55:00
4:55 AM,24.1,20.8,87,30.28,10.0,Calm,Calm,-,N/A,,Clear,0,2012-12-12 09:55:00
5:55 AM,23.7,20.7,88,30.30,10.0,Calm,Calm,-,N/A,,Clear,0,2012-12-12 10:55:00
6:55 AM,22.8,20.7,91,30.32,10.0,Calm,Calm,-,N/A,,Clear,0,2012-12-12 11:55:00
7:55 AM,23.2,21.2,92,30.35,10.0,Calm,Calm,-,N/A,,Clear,0,2012-12-12 12:55:00
8:55 AM,25.5,23.9,94,30.36,10.0,Calm,Calm,-,N/A,,Clear,0,2012-12-12 13:55:00
9:55 AM,29.5,25.3,85,30.38,10.0,Calm,Calm,-,N/A,,Clear,0,2012-12-12 14:55:00
10:55 AM,33.3,25.0,72,30.38,10.0,Calm,Calm,-,N/A,,Clear,0,2012-12-12 15:55:00
11:55 AM,35.2,21.6,58,30.35,10.0,South,3.5,-,N/A,,Clear,190,2012-12-12 16:55:00
12:55 PM,35.8,22.5,58,30.35,10.0,South,5.8,-,N/A,,Clear,190,2012-12-12 17:55:00
1:55 PM,37.4,22.8,56,30.35,10.0,South,5.8,-,N/A,,Clear,190,2012-12-12 18:55:00
2:55 PM,36.1,23.5,60,30.35,10.0,South,3.5,-,N/A,,Clear,190,2012-12-12 19:55:00
3:55 PM,36.5,23.9,60,30.38,10.0,Calm,Calm,-,N/A,,Clear,0,2012-12-12 20:55:00
4:55 PM,28.8,23.7,81,30.38,10.0,Calm,Calm,-,N/A,,Clear,0,2012-12-12 21:55:00
5:55 PM,27.0,23.7,88,30.40,10.0,Calm,Calm,-,N/A,,Clear,0,2012-12-12 22:55:00
6:55 PM,25.3,23.5,93,30.41,10.0,Calm,Calm,-,N/A,,Clear,0,2012-12-12 23:55:00
7:55 PM,24.4,22.1,91,30.42,10.0,Calm,Calm,-,N/A,,Clear,0,2012-12-13 00:55:00
8:55 PM,25.5,24.1,94,30.41,10.0,Calm,Calm,-,N/A,,Clear,0,2012-12-13 01:55:00
9:55 PM,24.4,23.2,95,30.43,10.0,Calm,Calm,-,N/A,,Clear,0,2012-12-13 02:55:00
10:55 PM,22.1,20.5,93,30.44,10.0,Calm,Calm,-,N/A,,Clear,0,2012-12-13 03:55:00
11:55 PM,21.7,20.7,96,30.44,10.0,NE,3.5,-,N/A,,Clear,40,2012-12-13 04:55:00